createdAt,value
2022-12-01T03:55:15.029Z,92.17
2022-12-01T04:25:19.179Z,92.72
2022-12-01T04:55:23.392Z,93.82
2022-12-01T05:25:27.488Z,93.25
2022-12-01T05:55:33.641Z,94.01
2022-12-01T06:25:37.741Z,93.38
2022-12-01T06:55:41.882Z,94.67
2022-12-01T07:25:46.056Z,95.22
2022-12-01T07:55:50.830Z,95.33
2022-12-01T08:25:54.964Z,94.43
2022-12-01T08:56:02.023Z,93.71
2022-12-01T09:26:10.860Z,93.10
2022-12-01T09:56:22.191Z,92.46
2022-12-01T10:26:32.859Z,91.55
2022-12-01T10:56:41.236Z,91.34
2022-12-01T11:26:45.474Z,89.51
2022-12-01T11:57:10.669Z,85.56
2022-12-01T12:27:20.635Z,60.11
2022-12-01T12:57:28.563Z,76.33
2022-12-01T13:27:34.428Z,80.27
2022-12-01T13:57:40.287Z,82.09
2022-12-01T14:27:44.758Z,83.60
2022-12-01T14:57:51.176Z,82.99
2022-12-01T15:28:05.126Z,84.00
2022-12-01T15:58:10.418Z,84.42
2022-12-01T16:28:22.035Z,84.77
2022-12-01T16:58:26.403Z,85.29
2022-12-01T17:28:30.570Z,84.73
2022-12-01T17:58:34.764Z,84.94
2022-12-01T18:28:39.300Z,84.55
2022-12-01T18:58:43.610Z,84.41
2022-12-01T19:28:48.318Z,84.52
2022-12-01T19:58:52.626Z,84.26
2022-12-01T20:29:00.304Z,83.76
2022-12-01T20:59:06.041Z,83.39
2022-12-01T21:29:18.893Z,83.50
2022-12-01T21:59:24.351Z,82.97
2022-12-01T22:29:30.673Z,83.50
2022-12-01T22:59:35.836Z,82.61
2022-12-01T23:29:40.103Z,82.70
2022-12-01T23:59:45.150Z,83.29
